Terminal Aerodrome Forecast
Issued by NWS Wichita, KS

Home | Current Version | Previous Version | Text Only | Print | Product List | Glossary Off
Versions: 1 2 3 4 5 6 7 8 9 10 11 12 13 14 15 16 17 18

000
FTUS43 KICT 291100
TAFICT
TAF
KICT 291139Z 2912/3012 10008KT P6SM SCT100
     FM291500 13008KT P6SM SCT050 SCT100
     FM300600 09008KT P6SM VCTS BKN050CB=

USA.gov is the U.S. government's official web portal to all federal, state and local government web resources and services.